sensor_id;sensor_type;location;lat;lon;timestamp;temperature;humidity
54461;DHT22;40371;49.414;11.010;2022-12-18T00:01:24;-9.70;99.90
54461;DHT22;40371;49.414;11.010;2022-12-18T00:03:51;-9.70;99.90
54461;DHT22;40371;49.414;11.010;2022-12-18T00:06:17;-9.50;99.90
54461;DHT22;40371;49.414;11.010;2022-12-18T00:08:44;-9.50;99.90
54461;DHT22;40371;49.414;11.010;2022-12-18T00:11:18;-9.40;99.90
54461;DHT22;40371;49.414;11.010;2022-12-18T00:13:44;-9.50;99.90
54461;DHT22;40371;49.414;11.010;2022-12-18T00:16:12;-9.70;99.90
54461;DHT22;40371;49.414;11.010;2022-12-18T00:18:38;-9.80;99.90
54461;DHT22;40371;49.414;11.010;2022-12-18T00:21:07;-9.70;99.90
54461;DHT22;40371;49.414;11.010;2022-12-18T00:23:34;-9.80;99.90
54461;DHT22;40371;49.414;11.010;2022-12-18T00:26:00;-9.80;99.90
54461;DHT22;40371;49.414;11.010;2022-12-18T00:28:26;-9.70;99.90
54461;DHT22;40371;49.414;11.010;2022-12-18T00:31:04;-9.50;99.90
54461;DHT22;40371;49.414;11.010;2022-12-18T00:33:30;-9.40;99.90
54461;DHT22;40371;49.414;11.010;2022-12-18T00:36:03;-9.50;99.90
54461;DHT22;40371;49.414;11.010;2022-12-18T00:38:31;-9.50;99.90
54461;DHT22;40371;49.414;11.010;2022-12-18T00:40:57;-9.40;99.90
54461;DHT22;40371;49.414;11.010;2022-12-18T00:43:22;-9.40;99.90
54461;DHT22;40371;49.414;11.010;2022-12-18T00:45:48;-9.30;99.90
54461;DHT22;40371;49.414;11.010;2022-12-18T00:48:14;-9.30;99.90
54461;DHT22;40371;49.414;11.010;2022-12-18T00:50:40;-9.20;99.90
54461;DHT22;40371;49.414;11.010;2022-12-18T00:53:05;-9.10;99.90
54461;DHT22;40371;49.414;11.010;2022-12-18T00:55:31;-9.10;99.90
54461;DHT22;40371;49.414;11.010;2022-12-18T00:57:57;-9.10;99.90
54461;DHT22;40371;49.414;11.010;2022-12-18T01:00:22;-9.30;99.90
54461;DHT22;40371;49.414;11.010;2022-12-18T01:02:48;-9.10;99.90
54461;DHT22;40371;49.414;11.010;2022-12-18T01:05:14;-8.90;99.90
54461;DHT22;40371;49.414;11.010;2022-12-18T01:07:40;-9.10;99.90
54461;DHT22;40371;49.414;11.010;2022-12-18T01:10:07;-9.10;99.90
54461;DHT22;40371;49.414;11.010;2022-12-18T01:12:34;-8.80;99.90
54461;DHT22;40371;49.414;11.010;2022-12-18T01:15:00;-8.60;99.90
54461;DHT22;40371;49.414;11.010;2022-12-18T01:17:25;-8.60;99.90
54461;DHT22;40371;49.414;11.010;2022-12-18T01:19:52;-8.50;99.90
54461;DHT22;40371;49.414;11.010;2022-12-18T01:22:18;-8.50;99.90
54461;DHT22;40371;49.414;11.010;2022-12-18T01:24:44;-8.50;99.90
54461;DHT22;40371;49.414;11.010;2022-12-18T01:27:09;-8.50;99.90
54461;DHT22;40371;49.414;11.010;2022-12-18T01:29:35;-8.70;99.90
54461;DHT22;40371;49.414;11.010;2022-12-18T01:32:01;-8.70;99.90
54461;DHT22;40371;49.414;11.010;2022-12-18T01:34:29;-8.50;99.90
54461;DHT22;40371;49.414;11.010;2022-12-18T01:36:54;-8.20;99.90
54461;DHT22;40371;49.414;11.010;2022-12-18T01:39:20;-8.30;99.90
54461;DHT22;40371;49.414;11.010;2022-12-18T01:41:46;-8.00;99.90
54461;DHT22;40371;49.414;11.010;2022-12-18T01:47:25;-7.80;99.90
54461;DHT22;40371;49.414;11.010;2022-12-18T01:49:51;-8.10;99.90
54461;DHT22;40371;49.414;11.010;2022-12-18T01:52:18;-7.80;99.90
54461;DHT22;40371;49.414;11.010;2022-12-18T01:54:46;-7.60;99.90
54461;DHT22;40371;49.414;11.010;2022-12-18T01:57:13;-7.30;99.90
54461;DHT22;40371;49.414;11.010;2022-12-18T01:59:40;-7.50;99.90
54461;DHT22;40371;49.414;11.010;2022-12-18T02:02:07;-7.40;99.90
54461;DHT22;40371;49.414;11.010;2022-12-18T02:04:33;-7.50;99.90
54461;DHT22;40371;49.414;11.010;2022-12-18T02:09:50;-7.40;99.90
54461;DHT22;40371;49.414;11.010;2022-12-18T02:12:20;-7.10;99.90
54461;DHT22;40371;49.414;11.010;2022-12-18T02:15:06;-6.80;99.90
54461;DHT22;40371;49.414;11.010;2022-12-18T02:17:39;-6.90;99.90
54461;DHT22;40371;49.414;11.010;2022-12-18T02:20:21;-6.80;99.90
54461;DHT22;40371;49.414;11.010;2022-12-18T02:23:11;-6.80;99.90
54461;DHT22;40371;49.414;11.010;2022-12-18T02:25:58;-6.70;99.90
54461;DHT22;40371;49.414;11.010;2022-12-18T02:28:31;-6.40;99.90
54461;DHT22;40371;49.414;11.010;2022-12-18T02:31:05;-6.40;99.90
54461;DHT22;40371;49.414;11.010;2022-12-18T02:33:35;-6.40;99.90
54461;DHT22;40371;49.414;11.010;2022-12-18T02:36:01;-6.30;99.90
54461;DHT22;40371;49.414;11.010;2022-12-18T02:38:31;-6.20;99.90
54461;DHT22;40371;49.414;11.010;2022-12-18T02:41:04;-6.20;99.90
54461;DHT22;40371;49.414;11.010;2022-12-18T02:43:30;-6.30;99.90
54461;DHT22;40371;49.414;11.010;2022-12-18T02:45:59;-6.10;99.90
54461;DHT22;40371;49.414;11.010;2022-12-18T02:48:33;-6.20;99.90
54461;DHT22;40371;49.414;11.010;2022-12-18T02:51:20;-6.10;99.90
54461;DHT22;40371;49.414;11.010;2022-12-18T02:54:06;-6.10;99.90
54461;DHT22;40371;49.414;11.010;2022-12-18T02:56:46;-6.00;99.90
54461;DHT22;40371;49.414;11.010;2022-12-18T02:59:31;-6.20;99.90
54461;DHT22;40371;49.414;11.010;2022-12-18T03:02:04;-6.40;99.90
54461;DHT22;40371;49.414;11.010;2022-12-18T03:04:42;-6.40;99.90
54461;DHT22;40371;49.414;11.010;2022-12-18T03:07:15;-6.50;99.90
54461;DHT22;40371;49.414;11.010;2022-12-18T03:09:47;-6.50;99.90
54461;DHT22;40371;49.414;11.010;2022-12-18T03:12:22;-6.10;99.90
54461;DHT22;40371;49.414;11.010;2022-12-18T03:17:43;-6.00;99.90
54461;DHT22;40371;49.414;11.010;2022-12-18T03:20:15;-6.00;99.90
54461;DHT22;40371;49.414;11.010;2022-12-18T03:22:43;-5.90;99.90
54461;DHT22;40371;49.414;11.010;2022-12-18T03:25:14;-5.70;99.90
54461;DHT22;40371;49.414;11.010;2022-12-18T03:27:46;-5.80;99.90
54461;DHT22;40371;49.414;11.010;2022-12-18T03:30:15;-6.20;99.90
54461;DHT22;40371;49.414;11.010;2022-12-18T03:32:48;-6.00;99.90
54461;DHT22;40371;49.414;11.010;2022-12-18T03:35:22;-5.90;99.90
54461;DHT22;40371;49.414;11.010;2022-12-18T03:37:49;-5.80;99.90
54461;DHT22;40371;49.414;11.010;2022-12-18T03:40:14;-5.80;99.90
54461;DHT22;40371;49.414;11.010;2022-12-18T03:42:51;-6.00;99.90
54461;DHT22;40371;49.414;11.010;2022-12-18T03:48:00;-5.90;99.90
54461;DHT22;40371;49.414;11.010;2022-12-18T03:53:38;-5.60;99.90
54461;DHT22;40371;49.414;11.010;2022-12-18T03:56:06;-5.50;99.90
54461;DHT22;40371;49.414;11.010;2022-12-18T03:58:38;-5.30;99.90
54461;DHT22;40371;49.414;11.010;2022-12-18T04:01:17;-5.40;99.90
54461;DHT22;40371;49.414;11.010;2022-12-18T04:03:46;-5.40;99.90
54461;DHT22;40371;49.414;11.010;2022-12-18T04:06:16;-5.30;99.90
54461;DHT22;40371;49.414;11.010;2022-12-18T04:08:44;-5.30;99.90
54461;DHT22;40371;49.414;11.010;2022-12-18T04:11:13;-5.60;99.90
54461;DHT22;40371;49.414;11.010;2022-12-18T04:13:39;-5.80;99.90
54461;DHT22;40371;49.414;11.010;2022-12-18T04:16:13;-5.80;99.90
54461;DHT22;40371;49.414;11.010;2022-12-18T04:18:41;-5.90;99.90
54461;DHT22;40371;49.414;11.010;2022-12-18T04:21:07;-5.90;99.90
54461;DHT22;40371;49.414;11.010;2022-12-18T04:23:34;-5.70;99.90
54461;DHT22;40371;49.414;11.010;2022-12-18T04:26:00;-5.50;99.90
54461;DHT22;40371;49.414;11.010;2022-12-18T04:28:41;-5.30;99.90
54461;DHT22;40371;49.414;11.010;2022-12-18T04:31:07;-5.20;99.90
54461;DHT22;40371;49.414;11.010;2022-12-18T04:33:33;-5.50;99.90
54461;DHT22;40371;49.414;11.010;2022-12-18T04:35:59;-5.60;99.90
54461;DHT22;40371;49.414;11.010;2022-12-18T04:38:24;-5.70;99.90
54461;DHT22;40371;49.414;11.010;2022-12-18T04:40:58;-5.80;99.90
54461;DHT22;40371;49.414;11.010;2022-12-18T04:43:26;-5.70;99.90
54461;DHT22;40371;49.414;11.010;2022-12-18T04:45:51;-5.70;99.90
54461;DHT22;40371;49.414;11.010;2022-12-18T04:48:17;-5.50;99.90
54461;DHT22;40371;49.414;11.010;2022-12-18T04:50:42;-5.40;99.90
54461;DHT22;40371;49.414;11.010;2022-12-18T04:53:08;-5.20;99.90
54461;DHT22;40371;49.414;11.010;2022-12-18T04:55:33;-5.10;99.90
54461;DHT22;40371;49.414;11.010;2022-12-18T04:57:59;-4.90;99.90
54461;DHT22;40371;49.414;11.010;2022-12-18T05:00:25;-4.90;99.90
54461;DHT22;40371;49.414;11.010;2022-12-18T05:02:51;-5.00;99.90
54461;DHT22;40371;49.414;11.010;2022-12-18T05:05:17;-4.90;99.90
54461;DHT22;40371;49.414;11.010;2022-12-18T05:07:42;-4.90;99.90
54461;DHT22;40371;49.414;11.010;2022-12-18T05:10:09;-5.40;99.90
54461;DHT22;40371;49.414;11.010;2022-12-18T05:12:34;-5.20;99.90
54461;DHT22;40371;49.414;11.010;2022-12-18T05:15:20;-5.10;99.90
54461;DHT22;40371;49.414;11.010;2022-12-18T05:17:45;-4.90;99.90
54461;DHT22;40371;49.414;11.010;2022-12-18T05:20:11;-5.00;99.90
54461;DHT22;40371;49.414;11.010;2022-12-18T05:22:37;-5.00;99.90
54461;DHT22;40371;49.414;11.010;2022-12-18T05:25:02;-4.90;99.90
54461;DHT22;40371;49.414;11.010;2022-12-18T05:27:28;-4.80;99.90
54461;DHT22;40371;49.414;11.010;2022-12-18T05:29:53;-4.80;99.90
54461;DHT22;40371;49.414;11.010;2022-12-18T05:32:19;-4.90;99.90
54461;DHT22;40371;49.414;11.010;2022-12-18T05:34:45;-5.00;99.90
54461;DHT22;40371;49.414;11.010;2022-12-18T05:37:10;-4.90;99.90
54461;DHT22;40371;49.414;11.010;2022-12-18T05:39:36;-5.10;99.90
54461;DHT22;40371;49.414;11.010;2022-12-18T05:42:01;-5.10;99.90
54461;DHT22;40371;49.414;11.010;2022-12-18T05:44:27;-5.10;99.90
54461;DHT22;40371;49.414;11.010;2022-12-18T05:46:53;-5.20;99.90
54461;DHT22;40371;49.414;11.010;2022-12-18T05:49:18;-5.10;99.90
54461;DHT22;40371;49.414;11.010;2022-12-18T05:51:44;-5.20;99.90
54461;DHT22;40371;49.414;11.010;2022-12-18T05:54:10;-5.00;99.90
54461;DHT22;40371;49.414;11.010;2022-12-18T05:56:35;-4.80;99.90
54461;DHT22;40371;49.414;11.010;2022-12-18T05:59:01;-4.70;99.90
54461;DHT22;40371;49.414;11.010;2022-12-18T06:01:27;-4.70;99.90
54461;DHT22;40371;49.414;11.010;2022-12-18T06:03:53;-4.70;99.90
54461;DHT22;40371;49.414;11.010;2022-12-18T06:06:21;-4.60;99.90
54461;DHT22;40371;49.414;11.010;2022-12-18T06:08:48;-4.60;99.90
54461;DHT22;40371;49.414;11.010;2022-12-18T06:11:17;-4.50;99.90
54461;DHT22;40371;49.414;11.010;2022-12-18T06:13:43;-4.40;99.90
54461;DHT22;40371;49.414;11.010;2022-12-18T06:16:09;-4.40;99.90
54461;DHT22;40371;49.414;11.010;2022-12-18T06:18:35;-4.40;99.90
54461;DHT22;40371;49.414;11.010;2022-12-18T06:21:01;-4.50;99.90
54461;DHT22;40371;49.414;11.010;2022-12-18T06:23:29;-4.60;99.90
54461;DHT22;40371;49.414;11.010;2022-12-18T06:25:55;-4.50;99.90
54461;DHT22;40371;49.414;11.010;2022-12-18T06:28:21;-4.40;99.90
54461;DHT22;40371;49.414;11.010;2022-12-18T06:30:47;-4.30;99.90
54461;DHT22;40371;49.414;11.010;2022-12-18T06:33:14;-4.30;99.90
54461;DHT22;40371;49.414;11.010;2022-12-18T06:35:40;-4.30;99.90
54461;DHT22;40371;49.414;11.010;2022-12-18T06:38:06;-4.10;99.90
54461;DHT22;40371;49.414;11.010;2022-12-18T06:40:32;-4.10;99.90
54461;DHT22;40371;49.414;11.010;2022-12-18T06:42:58;-4.00;99.90
54461;DHT22;40371;49.414;11.010;2022-12-18T06:45:23;-4.10;99.90
54461;DHT22;40371;49.414;11.010;2022-12-18T06:47:49;-4.10;99.90
54461;DHT22;40371;49.414;11.010;2022-12-18T06:50:15;-4.00;99.90
54461;DHT22;40371;49.414;11.010;2022-12-18T06:52:41;-3.90;99.90
54461;DHT22;40371;49.414;11.010;2022-12-18T06:55:10;-3.90;99.90
54461;DHT22;40371;49.414;11.010;2022-12-18T06:57:36;-4.00;99.90
54461;DHT22;40371;49.414;11.010;2022-12-18T07:00:03;-4.00;99.90
54461;DHT22;40371;49.414;11.010;2022-12-18T07:02:29;-4.00;99.90
54461;DHT22;40371;49.414;11.010;2022-12-18T07:04:55;-4.10;99.90
54461;DHT22;40371;49.414;11.010;2022-12-18T07:07:21;-4.10;99.90
54461;DHT22;40371;49.414;11.010;2022-12-18T07:09:46;-4.10;99.90
54461;DHT22;40371;49.414;11.010;2022-12-18T07:12:12;-4.00;99.90
54461;DHT22;40371;49.414;11.010;2022-12-18T07:14:38;-3.90;99.90
54461;DHT22;40371;49.414;11.010;2022-12-18T07:17:03;-4.00;99.90
54461;DHT22;40371;49.414;11.010;2022-12-18T07:19:29;-3.90;99.90
54461;DHT22;40371;49.414;11.010;2022-12-18T07:21:55;-4.10;99.90
54461;DHT22;40371;49.414;11.010;2022-12-18T07:24:20;-4.10;99.90
54461;DHT22;40371;49.414;11.010;2022-12-18T07:26:46;-4.00;99.90
54461;DHT22;40371;49.414;11.010;2022-12-18T07:29:12;-3.80;99.90
54461;DHT22;40371;49.414;11.010;2022-12-18T07:31:37;-3.90;99.90
54461;DHT22;40371;49.414;11.010;2022-12-18T07:34:03;-3.80;99.90
54461;DHT22;40371;49.414;11.010;2022-12-18T07:36:28;-3.80;99.90
54461;DHT22;40371;49.414;11.010;2022-12-18T07:38:54;-3.70;99.90
54461;DHT22;40371;49.414;11.010;2022-12-18T07:41:20;-3.70;99.90
54461;DHT22;40371;49.414;11.010;2022-12-18T07:43:46;-3.70;99.90
54461;DHT22;40371;49.414;11.010;2022-12-18T07:46:13;-3.60;99.90
54461;DHT22;40371;49.414;11.010;2022-12-18T07:48:42;-3.50;99.90
54461;DHT22;40371;49.414;11.010;2022-12-18T07:51:09;-3.50;99.90
54461;DHT22;40371;49.414;11.010;2022-12-18T07:53:35;-3.40;99.90
54461;DHT22;40371;49.414;11.010;2022-12-18T07:56:09;-3.60;99.90
54461;DHT22;40371;49.414;11.010;2022-12-18T07:58:35;-3.50;99.90
54461;DHT22;40371;49.414;11.010;2022-12-18T08:01:09;-3.40;99.90
54461;DHT22;40371;49.414;11.010;2022-12-18T08:03:36;-3.60;99.90
54461;DHT22;40371;49.414;11.010;2022-12-18T08:06:03;-3.80;99.90
54461;DHT22;40371;49.414;11.010;2022-12-18T08:08:29;-3.70;99.90
54461;DHT22;40371;49.414;11.010;2022-12-18T08:10:57;-3.50;99.90
54461;DHT22;40371;49.414;11.010;2022-12-18T08:13:23;-3.40;99.90
54461;DHT22;40371;49.414;11.010;2022-12-18T08:16:03;-3.30;99.90
54461;DHT22;40371;49.414;11.010;2022-12-18T08:18:29;-3.20;99.90
54461;DHT22;40371;49.414;11.010;2022-12-18T08:20:57;-3.20;99.90
54461;DHT22;40371;49.414;11.010;2022-12-18T08:23:22;-3.30;99.90
54461;DHT22;40371;49.414;11.010;2022-12-18T08:25:48;-3.20;99.90
54461;DHT22;40371;49.414;11.010;2022-12-18T08:28:13;-3.40;99.90
54461;DHT22;40371;49.414;11.010;2022-12-18T08:30:42;-3.30;99.90
54461;DHT22;40371;49.414;11.010;2022-12-18T08:33:08;-3.10;99.90
54461;DHT22;40371;49.414;11.010;2022-12-18T08:35:36;-3.10;99.90
54461;DHT22;40371;49.414;11.010;2022-12-18T08:38:02;-3.10;99.90
54461;DHT22;40371;49.414;11.010;2022-12-18T08:40:28;-3.00;99.90
54461;DHT22;40371;49.414;11.010;2022-12-18T08:42:54;-3.00;99.90
54461;DHT22;40371;49.414;11.010;2022-12-18T08:45:38;-3.40;99.90
54461;DHT22;40371;49.414;11.010;2022-12-18T08:48:04;-3.30;99.90
54461;DHT22;40371;49.414;11.010;2022-12-18T08:50:29;-3.20;99.90
54461;DHT22;40371;49.414;11.010;2022-12-18T08:52:55;-3.00;99.90
54461;DHT22;40371;49.414;11.010;2022-12-18T08:55:20;-2.90;99.90
54461;DHT22;40371;49.414;11.010;2022-12-18T08:57:48;-2.90;99.90
54461;DHT22;40371;49.414;11.010;2022-12-18T09:00:15;-2.80;99.90
54461;DHT22;40371;49.414;11.010;2022-12-18T09:02:40;-2.80;99.90
54461;DHT22;40371;49.414;11.010;2022-12-18T09:05:06;-2.90;99.90
54461;DHT22;40371;49.414;11.010;2022-12-18T09:07:32;-2.90;99.90
54461;DHT22;40371;49.414;11.010;2022-12-18T09:09:57;-2.80;99.90
54461;DHT22;40371;49.414;11.010;2022-12-18T09:12:23;-2.60;99.90
54461;DHT22;40371;49.414;11.010;2022-12-18T09:14:49;-2.40;99.90
54461;DHT22;40371;49.414;11.010;2022-12-18T09:17:14;-2.50;99.90
54461;DHT22;40371;49.414;11.010;2022-12-18T09:19:40;-2.50;99.90
54461;DHT22;40371;49.414;11.010;2022-12-18T09:22:05;-2.40;99.90
54461;DHT22;40371;49.414;11.010;2022-12-18T09:24:31;-2.30;99.90
54461;DHT22;40371;49.414;11.010;2022-12-18T09:26:57;-2.60;99.90
54461;DHT22;40371;49.414;11.010;2022-12-18T09:29:22;-2.90;99.90
54461;DHT22;40371;49.414;11.010;2022-12-18T09:31:48;-2.30;99.90
54461;DHT22;40371;49.414;11.010;2022-12-18T09:34:15;-2.00;99.90
54461;DHT22;40371;49.414;11.010;2022-12-18T09:36:41;-1.70;99.90
54461;DHT22;40371;49.414;11.010;2022-12-18T09:39:07;-1.80;99.90
54461;DHT22;40371;49.414;11.010;2022-12-18T09:41:45;-1.70;99.90
54461;DHT22;40371;49.414;11.010;2022-12-18T09:44:19;-1.80;99.90
54461;DHT22;40371;49.414;11.010;2022-12-18T09:47:33;-1.90;99.90
54461;DHT22;40371;49.414;11.010;2022-12-18T09:49:42;-2.30;99.90
54461;DHT22;40371;49.414;11.010;2022-12-18T09:52:19;-2.00;99.90
54461;DHT22;40371;49.414;11.010;2022-12-18T09:54:52;-2.10;99.90
54461;DHT22;40371;49.414;11.010;2022-12-18T09:57:22;-2.00;99.90
54461;DHT22;40371;49.414;11.010;2022-12-18T09:59:56;-2.40;99.90
54461;DHT22;40371;49.414;11.010;2022-12-18T10:02:25;-2.80;99.90
54461;DHT22;40371;49.414;11.010;2022-12-18T10:05:24;-2.60;99.90
54461;DHT22;40371;49.414;11.010;2022-12-18T10:10:37;-2.10;99.90
54461;DHT22;40371;49.414;11.010;2022-12-18T10:13:31;-2.20;99.90
54461;DHT22;40371;49.414;11.010;2022-12-18T10:18:51;-2.40;99.90
54461;DHT22;40371;49.414;11.010;2022-12-18T10:21:28;-2.50;99.90
54461;DHT22;40371;49.414;11.010;2022-12-18T10:26:38;-2.30;99.90
54461;DHT22;40371;49.414;11.010;2022-12-18T10:29:11;-2.40;99.90
54461;DHT22;40371;49.414;11.010;2022-12-18T10:31:37;-2.50;99.90
54461;DHT22;40371;49.414;11.010;2022-12-18T10:34:02;-2.40;99.90
54461;DHT22;40371;49.414;11.010;2022-12-18T10:36:29;-2.30;99.90
54461;DHT22;40371;49.414;11.010;2022-12-18T10:39:14;-2.00;99.90
54461;DHT22;40371;49.414;11.010;2022-12-18T10:41:40;-2.30;99.90
54461;DHT22;40371;49.414;11.010;2022-12-18T10:44:19;-2.40;99.90
54461;DHT22;40371;49.414;11.010;2022-12-18T10:46:46;-2.10;99.90
54461;DHT22;40371;49.414;11.010;2022-12-18T10:49:26;-2.30;99.90
54461;DHT22;40371;49.414;11.010;2022-12-18T10:52:20;-2.20;99.90
54461;DHT22;40371;49.414;11.010;2022-12-18T10:59:54;-1.80;99.90
54461;DHT22;40371;49.414;11.010;2022-12-18T11:02:40;-2.10;99.90
54461;DHT22;40371;49.414;11.010;2022-12-18T11:07:53;-1.90;99.90
54461;DHT22;40371;49.414;11.010;2022-12-18T11:10:32;-1.70;99.90
54461;DHT22;40371;49.414;11.010;2022-12-18T11:13:23;-1.60;99.90
54461;DHT22;40371;49.414;11.010;2022-12-18T11:15:50;-1.80;99.90
54461;DHT22;40371;49.414;11.010;2022-12-18T11:18:33;-1.80;99.90
54461;DHT22;40371;49.414;11.010;2022-12-18T11:21:07;-1.90;99.90
54461;DHT22;40371;49.414;11.010;2022-12-18T11:23:34;-1.90;99.90
54461;DHT22;40371;49.414;11.010;2022-12-18T11:26:02;-1.70;99.90
54461;DHT22;40371;49.414;11.010;2022-12-18T11:28:40;-1.80;99.90
54461;DHT22;40371;49.414;11.010;2022-12-18T11:31:28;-1.50;99.90
54461;DHT22;40371;49.414;11.010;2022-12-18T11:34:22;-0.20;99.90
54461;DHT22;40371;49.414;11.010;2022-12-18T11:36:50;0.20;99.90
54461;DHT22;40371;49.414;11.010;2022-12-18T11:39:36;0.50;99.90
54461;DHT22;40371;49.414;11.010;2022-12-18T11:42:15;0.30;99.90
54461;DHT22;40371;49.414;11.010;2022-12-18T11:44:55;0.30;99.90
54461;DHT22;40371;49.414;11.010;2022-12-18T11:47:48;0.30;99.90
54461;DHT22;40371;49.414;11.010;2022-12-18T11:50:22;0.20;99.90
54461;DHT22;40371;49.414;11.010;2022-12-18T11:52:49;0.00;99.90
54461;DHT22;40371;49.414;11.010;2022-12-18T11:55:20;1.20;99.90
54461;DHT22;40371;49.414;11.010;2022-12-18T12:00:49;1.10;99.90
54461;DHT22;40371;49.414;11.010;2022-12-18T12:03:39;1.00;99.90
54461;DHT22;40371;49.414;11.010;2022-12-18T12:11:48;1.10;99.90
54461;DHT22;40371;49.414;11.010;2022-12-18T12:17:36;1.30;99.90
54461;DHT22;40371;49.414;11.010;2022-12-18T12:20:15;0.80;99.90
54461;DHT22;40371;49.414;11.010;2022-12-18T12:23:02;0.20;99.90
54461;DHT22;40371;49.414;11.010;2022-12-18T12:25:47;0.20;99.90
54461;DHT22;40371;49.414;11.010;2022-12-18T12:36:32;0.40;99.90
54461;DHT22;40371;49.414;11.010;2022-12-18T12:39:03;-0.20;99.90
54461;DHT22;40371;49.414;11.010;2022-12-18T12:41:33;-0.10;99.90
54461;DHT22;40371;49.414;11.010;2022-12-18T12:44:25;-0.50;99.90
54461;DHT22;40371;49.414;11.010;2022-12-18T12:46:55;-0.20;99.90
54461;DHT22;40371;49.414;11.010;2022-12-18T12:49:25;-0.40;99.90
54461;DHT22;40371;49.414;11.010;2022-12-18T12:52:07;-0.50;99.90
54461;DHT22;40371;49.414;11.010;2022-12-18T12:54:33;-0.90;99.90
54461;DHT22;40371;49.414;11.010;2022-12-18T12:57:10;-0.80;99.90
54461;DHT22;40371;49.414;11.010;2022-12-18T12:59:47;-1.30;99.90
54461;DHT22;40371;49.414;11.010;2022-12-18T13:05:33;-1.40;99.90
54461;DHT22;40371;49.414;11.010;2022-12-18T13:08:09;-1.00;99.90
54461;DHT22;40371;49.414;11.010;2022-12-18T13:10:36;-0.90;99.90
54461;DHT22;40371;49.414;11.010;2022-12-18T13:13:13;-0.50;99.90
54461;DHT22;40371;49.414;11.010;2022-12-18T13:15:48;-0.70;99.90
54461;DHT22;40371;49.414;11.010;2022-12-18T13:18:27;-0.30;99.90
54461;DHT22;40371;49.414;11.010;2022-12-18T13:28:16;-0.40;99.90
54461;DHT22;40371;49.414;11.010;2022-12-18T13:30:51;-0.70;99.90
54461;DHT22;40371;49.414;11.010;2022-12-18T13:36:33;-0.60;99.90
54461;DHT22;40371;49.414;11.010;2022-12-18T13:41:42;-0.50;99.90
54461;DHT22;40371;49.414;11.010;2022-12-18T13:44:38;-0.70;99.90
54461;DHT22;40371;49.414;11.010;2022-12-18T13:47:27;-0.90;99.90
54461;DHT22;40371;49.414;11.010;2022-12-18T13:49:54;-1.10;99.90
54461;DHT22;40371;49.414;11.010;2022-12-18T13:52:24;-1.30;99.90
54461;DHT22;40371;49.414;11.010;2022-12-18T13:54:53;-1.20;99.90
54461;DHT22;40371;49.414;11.010;2022-12-18T13:57:35;-0.90;99.90
54461;DHT22;40371;49.414;11.010;2022-12-18T14:02:45;-1.30;99.90
54461;DHT22;40371;49.414;11.010;2022-12-18T14:05:35;-1.50;99.90
54461;DHT22;40371;49.414;11.010;2022-12-18T14:08:05;-1.50;99.90
54461;DHT22;40371;49.414;11.010;2022-12-18T14:10:32;-1.40;99.90
54461;DHT22;40371;49.414;11.010;2022-12-18T14:13:04;-1.20;99.90
54461;DHT22;40371;49.414;11.010;2022-12-18T14:15:43;-1.40;99.90
54461;DHT22;40371;49.414;11.010;2022-12-18T14:20:56;-1.60;99.90
54461;DHT22;40371;49.414;11.010;2022-12-18T14:26:17;-1.80;99.90
54461;DHT22;40371;49.414;11.010;2022-12-18T14:28:44;-1.70;99.90
54461;DHT22;40371;49.414;11.010;2022-12-18T14:31:24;-1.70;99.90
54461;DHT22;40371;49.414;11.010;2022-12-18T14:33:51;-2.10;99.90
54461;DHT22;40371;49.414;11.010;2022-12-18T14:36:22;-2.00;99.90
54461;DHT22;40371;49.414;11.010;2022-12-18T14:38:56;-2.00;99.90
54461;DHT22;40371;49.414;11.010;2022-12-18T14:41:23;-2.10;99.90
54461;DHT22;40371;49.414;11.010;2022-12-18T14:43:51;-2.20;99.90
54461;DHT22;40371;49.414;11.010;2022-12-18T14:49:41;-2.40;99.90
54461;DHT22;40371;49.414;11.010;2022-12-18T14:52:04;-2.50;99.90
54461;DHT22;40371;49.414;11.010;2022-12-18T14:54:31;-2.50;99.90
54461;DHT22;40371;49.414;11.010;2022-12-18T14:57:42;-2.40;99.90
54461;DHT22;40371;49.414;11.010;2022-12-18T14:59:50;-2.40;99.90
54461;DHT22;40371;49.414;11.010;2022-12-18T15:02:22;-2.60;99.90
54461;DHT22;40371;49.414;11.010;2022-12-18T15:05:00;-2.70;99.90
54461;DHT22;40371;49.414;11.010;2022-12-18T15:07:26;-2.80;99.90
54461;DHT22;40371;49.414;11.010;2022-12-18T15:10:15;-2.80;99.90
54461;DHT22;40371;49.414;11.010;2022-12-18T15:12:44;-2.90;99.90
54461;DHT22;40371;49.414;11.010;2022-12-18T15:18:03;-2.90;99.90
54461;DHT22;40371;49.414;11.010;2022-12-18T15:20:31;-3.00;99.90
54461;DHT22;40371;49.414;11.010;2022-12-18T15:22:58;-2.80;99.90
54461;DHT22;40371;49.414;11.010;2022-12-18T15:25:34;-2.90;99.90
54461;DHT22;40371;49.414;11.010;2022-12-18T15:28:02;-2.80;99.90
54461;DHT22;40371;49.414;11.010;2022-12-18T15:30:28;-3.00;99.90
54461;DHT22;40371;49.414;11.010;2022-12-18T15:33:20;-3.10;99.90
54461;DHT22;40371;49.414;11.010;2022-12-18T15:35:59;-3.10;99.90
54461;DHT22;40371;49.414;11.010;2022-12-18T15:38:25;-3.00;99.90
54461;DHT22;40371;49.414;11.010;2022-12-18T15:40:51;-3.10;99.90
54461;DHT22;40371;49.414;11.010;2022-12-18T15:43:19;-3.10;99.90
54461;DHT22;40371;49.414;11.010;2022-12-18T15:46:06;-3.20;99.90
54461;DHT22;40371;49.414;11.010;2022-12-18T15:48:38;-3.30;99.90
54461;DHT22;40371;49.414;11.010;2022-12-18T15:51:07;-3.40;99.90
54461;DHT22;40371;49.414;11.010;2022-12-18T15:53:37;-3.30;99.90
54461;DHT22;40371;49.414;11.010;2022-12-18T15:56:07;-3.30;99.90
54461;DHT22;40371;49.414;11.010;2022-12-18T15:58:52;-3.30;99.90
54461;DHT22;40371;49.414;11.010;2022-12-18T16:01:18;-3.30;99.90
54461;DHT22;40371;49.414;11.010;2022-12-18T16:03:44;-3.30;99.90
54461;DHT22;40371;49.414;11.010;2022-12-18T16:06:10;-3.20;99.90
54461;DHT22;40371;49.414;11.010;2022-12-18T16:08:36;-3.20;99.90
54461;DHT22;40371;49.414;11.010;2022-12-18T16:11:01;-3.30;99.90
54461;DHT22;40371;49.414;11.010;2022-12-18T16:13:27;-3.30;99.90
54461;DHT22;40371;49.414;11.010;2022-12-18T16:15:53;-3.30;99.90
54461;DHT22;40371;49.414;11.010;2022-12-18T16:18:18;-3.20;99.90
54461;DHT22;40371;49.414;11.010;2022-12-18T16:20:44;-3.30;99.90
54461;DHT22;40371;49.414;11.010;2022-12-18T16:23:10;-3.30;99.90
54461;DHT22;40371;49.414;11.010;2022-12-18T16:25:36;-3.30;99.90
54461;DHT22;40371;49.414;11.010;2022-12-18T16:28:01;-3.30;99.90
54461;DHT22;40371;49.414;11.010;2022-12-18T16:30:29;-3.40;99.90
54461;DHT22;40371;49.414;11.010;2022-12-18T16:32:56;-3.30;99.90
54461;DHT22;40371;49.414;11.010;2022-12-18T16:35:23;-3.40;99.90
54461;DHT22;40371;49.414;11.010;2022-12-18T16:37:52;-3.50;99.90
54461;DHT22;40371;49.414;11.010;2022-12-18T16:40:18;-3.50;99.90
54461;DHT22;40371;49.414;11.010;2022-12-18T16:42:45;-3.40;99.90
54461;DHT22;40371;49.414;11.010;2022-12-18T16:45:14;-3.30;99.90
54461;DHT22;40371;49.414;11.010;2022-12-18T16:47:40;-3.20;99.90
54461;DHT22;40371;49.414;11.010;2022-12-18T16:50:07;-3.40;99.90
54461;DHT22;40371;49.414;11.010;2022-12-18T16:52:33;-3.50;99.90
54461;DHT22;40371;49.414;11.010;2022-12-18T16:54:59;-3.60;99.90
54461;DHT22;40371;49.414;11.010;2022-12-18T16:57:25;-3.60;99.90